Time;durP1;ratioP1;P1;durP2;ratioP2;P2;SDS_P1;SDS_P2;PMS_P1;PMS_P2;Temp;Humidity;BMP_temperature;BMP_pressure;BME280_temperature;BME280_humidity;BME280_pressure;Samples;Min_cycle;Max_cycle;Signal;HPM_P1;HPM_P2
2023/04/08 00:00:34;;;;;;;5.20;4.10;;;3.60;99.90;;;;;;5014776;28;20182;-80
2023/04/08 00:03:01;;;;;;;5.80;4.57;;;3.60;99.90;;;;;;5013904;28;20194;-79
2023/04/08 00:05:27;;;;;;;5.00;3.70;;;3.60;99.90;;;;;;5013680;28;20175;-79
2023/04/08 00:07:52;;;;;;;4.07;3.50;;;3.40;99.90;;;;;;5014017;28;20202;-79
2023/04/08 00:10:18;;;;;;;4.50;3.60;;;3.40;99.90;;;;;;5013502;28;20180;-79
2023/04/08 00:12:44;;;;;;;4.80;4.10;;;3.40;99.90;;;;;;5015095;28;20179;-80
2023/04/08 00:15:09;;;;;;;5.23;4.40;;;3.20;99.90;;;;;;5014790;28;20183;-79
2023/04/08 00:17:35;;;;;;;5.33;4.20;;;3.30;99.90;;;;;;5013732;28;20186;-79
2023/04/08 00:20:01;;;;;;;4.80;4.10;;;3.40;99.90;;;;;;5013008;28;20207;-80
2023/04/08 00:22:27;;;;;;;6.83;4.13;;;3.50;99.90;;;;;;5013583;28;20185;-79
2023/04/08 00:24:52;;;;;;;5.07;4.33;;;3.60;99.90;;;;;;5013519;28;20262;-80
2023/04/08 00:27:18;;;;;;;5.87;4.13;;;3.60;99.90;;;;;;5013610;28;20202;-79
2023/04/08 00:29:43;;;;;;;5.93;4.57;;;3.60;99.90;;;;;;5013851;28;20212;-80
2023/04/08 00:32:09;;;;;;;8.10;4.57;;;3.70;99.90;;;;;;5013306;28;20331;-80
2023/04/08 00:34:36;;;;;;;6.07;4.30;;;3.70;99.90;;;;;;5013334;28;20564;-79
2023/04/08 00:37:02;;;;;;;5.97;4.40;;;3.60;99.90;;;;;;5014695;28;20226;-80
2023/04/08 00:39:28;;;;;;;5.57;4.43;;;3.60;99.90;;;;;;5014417;28;20218;-79
2023/04/08 00:41:55;;;;;;;9.23;5.70;;;3.60;99.90;;;;;;5013653;28;20179;-79
2023/04/08 00:44:20;;;;;;;9.90;5.50;;;3.60;99.90;;;;;;5014586;28;20198;-79
2023/04/08 00:46:47;;;;;;;6.50;5.50;;;3.50;99.90;;;;;;5014417;28;20248;-79
2023/04/08 00:49:13;;;;;;;6.97;5.77;;;3.50;99.90;;;;;;5014134;28;20242;-79
2023/04/08 00:51:38;;;;;;;7.10;5.80;;;3.60;99.90;;;;;;5012780;28;20602;-79
2023/04/08 00:54:05;;;;;;;8.93;6.80;;;3.60;99.90;;;;;;5014257;28;20225;-80
2023/04/08 00:56:33;;;;;;;8.40;6.30;;;3.60;99.90;;;;;;5013317;28;20192;-79
2023/04/08 00:58:59;;;;;;;8.20;6.13;;;3.70;99.90;;;;;;5012617;28;20206;-79
2023/04/08 01:01:46;;;;;;;6.97;5.50;;;3.70;99.90;;;;;;5013663;28;20182;-79
2023/04/08 01:04:36;;;;;;;8.10;6.40;;;3.60;99.90;;;;;;5013602;28;20171;-79
2023/04/08 01:07:17;;;;;;;8.13;6.93;;;3.60;99.90;;;;;;5014180;28;20182;-79
2023/04/08 01:09:51;;;;;;;11.77;8.00;;;3.50;99.90;;;;;;5013608;28;20696;-80
2023/04/08 01:12:27;;;;;;;10.43;7.30;;;3.50;99.90;;;;;;5013840;28;20554;-79
2023/04/08 01:15:09;;;;;;;9.80;6.50;;;3.60;99.90;;;;;;5012693;28;20265;-79
2023/04/08 01:17:35;;;;;;;9.13;6.43;;;3.70;99.90;;;;;;5013807;28;20175;-80
2023/04/08 01:20:03;;;;;;;8.43;6.30;;;3.70;99.90;;;;;;5011904;28;20260;-79
2023/04/08 01:22:50;;;;;;;7.00;5.10;;;3.70;99.90;;;;;;5013757;28;20171;-79
2023/04/08 01:25:20;;;;;;;5.87;5.20;;;3.60;99.90;;;;;;5014234;28;20198;-79
2023/04/08 01:27:48;;;;;;;6.10;4.70;;;3.50;99.90;;;;;;5013569;28;20238;-79
2023/04/08 01:30:17;;;;;;;6.03;5.10;;;3.50;99.90;;;;;;5013259;28;20193;-79
2023/04/08 01:32:44;;;;;;;7.80;6.50;;;3.60;99.90;;;;;;5013433;28;20179;-79
2023/04/08 01:35:10;;;;;;;8.67;6.50;;;3.50;99.90;;;;;;5013304;28;20229;-79
2023/04/08 01:37:37;;;;;;;7.93;6.27;;;3.50;99.90;;;;;;5012325;28;20179;-79
2023/04/08 01:40:06;;;;;;;8.47;6.67;;;3.50;99.90;;;;;;5012958;28;20210;-79
2023/04/08 01:42:34;;;;;;;9.80;7.07;;;3.50;99.90;;;;;;5013216;28;20171;-79
2023/04/08 01:45:00;;;;;;;8.80;6.57;;;3.50;99.90;;;;;;5013451;28;20198;-79
2023/04/08 01:47:28;;;;;;;8.47;6.50;;;3.40;99.90;;;;;;5011913;28;20171;-79
2023/04/08 01:49:55;;;;;;;9.00;6.87;;;3.40;99.90;;;;;;5011584;28;20175;-79
2023/04/08 01:52:22;;;;;;;12.43;6.80;;;3.30;99.90;;;;;;5013166;28;20183;-80
2023/04/08 01:54:48;;;;;;;7.13;5.70;;;3.30;99.90;;;;;;5013267;28;20637;-79
2023/04/08 01:57:22;;;;;;;7.80;6.23;;;3.20;99.90;;;;;;5013287;28;20185;-79
2023/04/08 01:59:51;;;;;;;9.07;6.10;;;3.30;99.90;;;;;;5012480;28;20216;-79
2023/04/08 02:02:21;;;;;;;9.37;6.63;;;3.30;99.90;;;;;;5011906;28;20175;-79
2023/04/08 02:04:46;;;;;;;9.97;6.73;;;3.20;99.90;;;;;;5013125;28;20275;-79
2023/04/08 02:07:13;;;;;;;8.30;6.40;;;3.30;99.90;;;;;;5013287;28;20183;-79
2023/04/08 02:09:38;;;;;;;8.80;6.40;;;3.30;99.90;;;;;;5012325;28;20202;-79
2023/04/08 02:12:04;;;;;;;9.37;6.73;;;3.20;99.90;;;;;;5012671;28;20186;-79
2023/04/08 02:14:30;;;;;;;10.77;7.00;;;3.20;99.90;;;;;;5011560;28;20272;-79
2023/04/08 02:17:04;;;;;;;10.43;7.60;;;3.20;99.90;;;;;;5012648;28;20199;-79
2023/04/08 02:19:39;;;;;;;9.10;6.57;;;3.00;99.90;;;;;;5011161;28;20296;-79
2023/04/08 02:22:18;;;;;;;8.40;6.40;;;3.10;99.90;;;;;;5012729;28;20219;-79
2023/04/08 02:24:45;;;;;;;7.73;6.03;;;3.10;99.90;;;;;;5012651;28;20189;-80
2023/04/08 02:27:11;;;;;;;10.07;7.33;;;2.90;99.90;;;;;;5007110;28;20274;-79
2023/04/08 02:29:40;;;;;;;9.50;6.97;;;2.90;99.90;;;;;;5023389;28;20221;-77
2023/04/08 02:32:07;;;;;;;8.50;6.90;;;2.90;99.90;;;;;;5032657;28;20213;-79
2023/04/08 02:34:34;;;;;;;7.67;6.37;;;2.90;99.90;;;;;;5032406;28;20180;-79
2023/04/08 02:37:01;;;;;;;8.43;6.73;;;2.90;99.90;;;;;;5024399;28;20193;-79
2023/04/08 02:39:33;;;;;;;9.13;6.87;;;2.90;99.90;;;;;;5022826;28;20241;-79
2023/04/08 02:41:59;;;;;;;8.17;6.83;;;2.90;99.90;;;;;;5024281;28;20267;-79
2023/04/08 02:44:24;;;;;;;9.40;7.10;;;2.80;99.90;;;;;;5030064;28;20636;-79
2023/04/08 02:46:50;;;;;;;9.17;7.63;;;2.80;99.90;;;;;;5019787;28;20181;-79
2023/04/08 02:49:15;;;;;;;9.33;6.77;;;2.80;99.90;;;;;;5029362;28;20255;-79
2023/04/08 02:51:41;;;;;;;7.93;6.47;;;2.90;99.90;;;;;;5031760;28;20192;-79
2023/04/08 02:54:07;;;;;;;9.50;7.00;;;2.90;99.90;;;;;;5031098;28;20192;-79
2023/04/08 02:56:32;;;;;;;9.53;7.40;;;2.80;99.90;;;;;;5030484;28;20173;-79
2023/04/08 02:58:58;;;;;;;9.70;7.23;;;2.90;99.90;;;;;;5020295;28;20206;-79
2023/04/08 03:01:23;;;;;;;11.03;7.37;;;2.90;99.90;;;;;;5028754;28;20177;-79
2023/04/08 03:03:49;;;;;;;9.20;7.27;;;2.90;99.90;;;;;;5030800;28;20184;-79
2023/04/08 03:06:15;;;;;;;9.50;7.30;;;2.90;99.90;;;;;;5030800;28;20551;-79
2023/04/08 03:08:41;;;;;;;9.70;7.60;;;2.90;99.90;;;;;;5032061;28;20207;-79
2023/04/08 03:11:06;;;;;;;11.70;7.70;;;2.90;99.90;;;;;;5031450;28;20188;-79
2023/04/08 03:13:33;;;;;;;10.47;7.87;;;2.90;99.90;;;;;;5032026;28;20204;-79
2023/04/08 03:15:58;;;;;;;10.23;7.30;;;3.00;99.90;;;;;;5030836;28;20188;-79
2023/04/08 03:18:24;;;;;;;11.83;7.70;;;3.00;99.90;;;;;;5030548;28;20209;-79
2023/04/08 03:20:50;;;;;;;10.33;7.33;;;2.90;99.90;;;;;;5031321;28;20264;-79
2023/04/08 03:23:16;;;;;;;9.13;6.47;;;2.90;99.90;;;;;;5031891;28;20270;-79
2023/04/08 03:25:41;;;;;;;9.07;6.40;;;2.90;99.90;;;;;;5031892;28;20181;-79
2023/04/08 03:28:07;;;;;;;8.23;6.10;;;2.90;99.90;;;;;;5031595;28;20222;-79
2023/04/08 03:30:33;;;;;;;8.03;7.00;;;2.80;99.90;;;;;;5033664;28;20177;-79
2023/04/08 03:32:58;;;;;;;8.23;6.60;;;2.80;99.90;;;;;;5034192;28;20265;-79
2023/04/08 03:35:24;;;;;;;8.07;6.63;;;2.90;99.90;;;;;;5034390;28;20246;-79
2023/04/08 03:37:49;;;;;;;8.90;7.10;;;3.00;99.90;;;;;;5035319;28;20193;-79
2023/04/08 03:40:15;;;;;;;9.53;7.17;;;3.20;99.90;;;;;;5034850;28;20706;-79
2023/04/08 03:42:41;;;;;;;9.13;6.90;;;3.20;99.90;;;;;;5033947;28;20177;-80
2023/04/08 03:45:07;;;;;;;7.63;6.27;;;3.30;99.90;;;;;;5034002;28;20177;-79
2023/04/08 03:47:33;;;;;;;8.17;7.07;;;3.30;99.90;;;;;;5030636;28;20668;-79
2023/04/08 03:49:58;;;;;;;10.90;7.23;;;3.40;99.90;;;;;;5022972;28;20186;-79
2023/04/08 03:52:24;;;;;;;10.20;7.23;;;3.40;99.90;;;;;;5015675;28;20228;-79
2023/04/08 03:54:49;;;;;;;9.10;6.90;;;3.40;99.90;;;;;;5015223;28;20596;-79
2023/04/08 03:57:15;;;;;;;10.73;7.10;;;3.30;99.90;;;;;;5015197;28;20213;-79
2023/04/08 03:59:41;;;;;;;8.63;7.17;;;3.30;99.90;;;;;;5014521;28;20203;-79
2023/04/08 04:02:06;;;;;;;9.57;6.93;;;3.30;99.90;;;;;;5013799;28;20178;-79
2023/04/08 04:04:32;;;;;;;9.93;6.97;;;3.30;99.90;;;;;;5014127;28;20580;-79
2023/04/08 04:06:58;;;;;;;8.90;7.20;;;3.30;99.90;;;;;;5013726;28;20170;-79
2023/04/08 04:09:24;;;;;;;8.80;6.93;;;3.30;99.90;;;;;;5014672;28;20213;-79
2023/04/08 04:11:49;;;;;;;9.17;6.93;;;3.20;99.90;;;;;;5014462;28;20257;-79
2023/04/08 04:14:15;;;;;;;10.43;7.27;;;3.10;99.90;;;;;;5013562;28;20182;-79
2023/04/08 04:16:41;;;;;;;8.33;6.80;;;3.00;99.90;;;;;;5014794;28;20175;-79
2023/04/08 04:19:06;;;;;;;9.17;7.20;;;2.90;99.90;;;;;;5014782;28;20209;-78
2023/04/08 04:21:32;;;;;;;9.77;7.67;;;2.90;99.90;;;;;;5020958;28;20174;-79
2023/04/08 04:23:57;;;;;;;8.90;6.77;;;3.00;99.90;;;;;;5029430;28;20214;-79
2023/04/08 04:26:23;;;;;;;8.83;7.00;;;3.10;99.90;;;;;;5034253;28;20173;-79
2023/04/08 04:28:48;;;;;;;10.33;7.17;;;3.20;99.90;;;;;;5082485;22;20233;-82
2023/04/08 04:31:19;;;;;;;10.00;7.03;;;3.30;99.90;;;;;;5013181;28;20678;-81
2023/04/08 04:33:46;;;;;;;8.37;6.97;;;3.40;99.90;;;;;;5015182;28;20201;-84
2023/04/08 04:36:11;;;;;;;10.13;7.57;;;3.40;99.90;;;;;;5014088;28;20653;-82
2023/04/08 04:38:37;;;;;;;10.33;7.33;;;3.50;99.90;;;;;;5014752;28;20217;-84
2023/04/08 04:41:03;;;;;;;8.17;6.97;;;3.60;99.90;;;;;;5013234;28;20195;-84
2023/04/08 04:43:28;;;;;;;9.20;7.00;;;3.60;99.90;;;;;;5015343;28;20167;-81
2023/04/08 04:45:55;;;;;;;10.13;7.50;;;3.70;99.90;;;;;;5013825;28;20183;-81
2023/04/08 04:48:22;;;;;;;10.13;7.80;;;3.60;99.90;;;;;;5013646;28;20542;-81
2023/04/08 04:50:58;;;;;;;9.93;7.50;;;3.60;99.90;;;;;;5014796;28;20186;-81
2023/04/08 04:53:24;;;;;;;10.73;7.47;;;3.70;99.90;;;;;;5015124;28;20204;-81
2023/04/08 04:55:50;;;;;;;11.37;8.00;;;3.80;99.90;;;;;;5013773;28;20175;-81
2023/04/08 04:58:16;;;;;;;9.73;7.63;;;3.80;99.90;;;;;;5013749;28;20258;-82
2023/04/08 05:00:41;;;;;;;9.70;7.67;;;3.90;99.90;;;;;;5013187;28;20717;-85
2023/04/08 05:03:07;;;;;;;9.27;7.57;;;3.80;99.90;;;;;;5015073;28;20525;-85
2023/04/08 05:05:32;;;;;;;9.67;7.60;;;3.70;99.90;;;;;;5014834;28;20233;-85
2023/04/08 05:07:59;;;;;;;9.67;7.57;;;3.70;99.90;;;;;;5015224;28;20178;-85
2023/04/08 05:10:24;;;;;;;9.33;7.47;;;3.80;99.90;;;;;;5012890;28;20210;-87
2023/04/08 05:12:50;;;;;;;7.93;6.87;;;3.80;99.90;;;;;;5014099;28;20268;-85
2023/04/08 05:15:16;;;;;;;10.47;7.40;;;3.80;99.90;;;;;;5014608;28;20192;-85
2023/04/08 05:17:41;;;;;;;9.20;7.10;;;3.80;99.90;;;;;;5014409;28;20318;-85
2023/04/08 05:20:07;;;;;;;8.67;6.93;;;3.90;99.90;;;;;;5014510;28;20547;-87
2023/04/08 05:22:33;;;;;;;9.00;6.97;;;3.90;99.90;;;;;;5013905;28;20200;-87
2023/04/08 05:24:59;;;;;;;9.40;7.23;;;3.90;99.90;;;;;;5018593;28;20170;-83
2023/04/08 05:27:25;;;;;;;11.97;7.20;;;3.90;99.90;;;;;;5018515;28;20188;-81
2023/04/08 05:29:50;;;;;;;9.53;7.60;;;3.90;99.90;;;;;;5017353;28;20294;-83
2023/04/08 05:32:16;;;;;;;8.90;7.20;;;3.90;99.90;;;;;;5017847;28;20263;-84
2023/04/08 05:34:42;;;;;;;9.53;6.70;;;3.90;99.90;;;;;;5017339;28;20182;-83
2023/04/08 05:37:08;;;;;;;8.90;6.63;;;4.00;99.90;;;;;;5019961;28;20198;-83
2023/04/08 05:39:33;;;;;;;9.13;7.10;;;4.00;99.90;;;;;;5017893;28;20221;-84
2023/04/08 05:41:59;;;;;;;7.10;5.40;;;4.00;99.90;;;;;;5016597;28;20190;-84
2023/04/08 05:44:24;;;;;;;7.87;6.43;;;4.40;99.90;;;;;;5016142;28;20171;-85
2023/04/08 05:46:51;;;;;;;8.87;6.57;;;5.20;99.90;;;;;;5013962;28;20182;-84
2023/04/08 05:49:17;;;;;;;7.97;6.40;;;5.70;99.90;;;;;;5014612;28;20210;-88
2023/04/08 05:51:45;;;;;;;8.10;5.90;;;6.00;99.90;;;;;;5013289;28;20190;-88
2023/04/08 05:54:10;;;;;;;8.10;6.43;;;6.40;99.90;;;;;;5012864;28;20215;-89
2023/04/08 05:56:36;;;;;;;6.67;5.80;;;6.60;99.90;;;;;;5014318;28;20188;-89
2023/04/08 05:59:02;;;;;;;6.83;5.90;;;6.90;99.90;;;;;;5011576;28;20239;-85
2023/04/08 06:01:27;;;;;;;7.70;6.90;;;7.10;99.90;;;;;;5012527;28;20235;-87
2023/04/08 06:03:55;;;;;;;8.90;6.77;;;7.10;99.90;;;;;;5011543;28;20173;-87
2023/04/08 06:06:21;;;;;;;7.90;6.57;;;6.50;99.90;;;;;;5015694;28;20237;-81
2023/04/08 06:08:47;;;;;;;7.67;6.40;;;6.00;99.90;;;;;;5014407;28;20202;-85
2023/04/08 06:11:13;;;;;;;8.77;7.23;;;5.60;99.90;;;;;;5012449;28;20180;-84
2023/04/08 06:13:38;;;;;;;8.10;6.80;;;5.30;99.90;;;;;;5015575;28;20168;-84
2023/04/08 06:16:13;;;;;;;9.97;7.27;;;5.10;99.90;;;;;;5015072;28;20183;-83
2023/04/08 06:18:38;;;;;;;9.80;7.20;;;5.00;99.90;;;;;;5013518;28;20565;-84
2023/04/08 06:21:05;;;;;;;9.37;7.40;;;4.80;99.90;;;;;;5018187;28;20182;-84
2023/04/08 06:23:30;;;;;;;9.83;7.53;;;4.70;99.90;;;;;;5016853;28;20657;-83
2023/04/08 06:25:56;;;;;;;8.13;6.77;;;4.80;99.90;;;;;;5022366;28;20241;-86
2023/04/08 06:28:21;;;;;;;8.53;7.03;;;4.80;99.90;;;;;;5024528;28;20701;-85
2023/04/08 06:30:47;;;;;;;9.50;7.70;;;4.90;99.90;;;;;;5033115;28;20274;-83
2023/04/08 06:33:12;;;;;;;9.10;7.27;;;5.00;99.90;;;;;;5033971;28;20182;-84
2023/04/08 06:35:38;;;;;;;9.57;7.70;;;5.00;99.90;;;;;;5033190;28;20224;-83
2023/04/08 06:38:04;;;;;;;9.20;7.30;;;5.00;99.90;;;;;;5032311;28;20182;-81
2023/04/08 06:40:29;;;;;;;9.43;7.57;;;5.00;99.90;;;;;;5032772;28;20209;-82
2023/04/08 06:42:55;;;;;;;10.10;7.70;;;5.00;99.90;;;;;;5035417;28;20174;-80
2023/04/08 06:45:21;;;;;;;9.70;7.47;;;5.10;99.90;;;;;;5036936;28;20200;-82
2023/04/08 06:47:46;;;;;;;9.37;8.00;;;5.20;99.90;;;;;;5032534;28;20250;-82
2023/04/08 06:50:12;;;;;;;10.00;7.93;;;5.30;99.90;;;;;;5034408;28;20218;-81
2023/04/08 06:52:37;;;;;;;9.83;8.23;;;5.40;99.90;;;;;;5034919;28;20190;-82
2023/04/08 06:55:03;;;;;;;10.50;8.00;;;5.40;99.90;;;;;;5035959;28;20645;-83
2023/04/08 06:57:29;;;;;;;9.07;7.60;;;5.40;99.90;;;;;;5033047;28;20179;-82
2023/04/08 06:59:55;;;;;;;9.23;7.80;;;5.40;99.90;;;;;;5029094;28;20210;-83
2023/04/08 07:02:21;;;;;;;10.53;8.63;;;5.40;99.90;;;;;;5031023;28;20166;-83
2023/04/08 07:04:47;;;;;;;10.03;7.87;;;5.50;99.90;;;;;;5033825;28;20270;-83
2023/04/08 07:07:13;;;;;;;9.13;7.93;;;5.60;99.90;;;;;;5033502;28;20716;-82
2023/04/08 07:09:40;;;;;;;10.17;7.97;;;5.70;99.90;;;;;;5022160;28;20203;-82
2023/04/08 07:12:05;;;;;;;9.87;7.27;;;5.70;99.90;;;;;;5022747;28;20179;-83
2023/04/08 07:14:31;;;;;;;8.60;7.27;;;5.70;99.90;;;;;;5034246;28;20520;-82
2023/04/08 07:16:56;;;;;;;9.80;7.30;;;5.60;99.90;;;;;;5034188;28;20294;-82
2023/04/08 07:19:23;;;;;;;10.67;7.40;;;5.70;99.90;;;;;;5034445;28;20214;-81
2023/04/08 07:21:49;;;;;;;8.50;6.90;;;5.70;99.90;;;;;;5035217;28;20182;-82
2023/04/08 07:24:14;;;;;;;9.23;7.03;;;5.80;99.90;;;;;;5034480;28;20258;-81
2023/04/08 07:26:40;;;;;;;8.43;6.53;;;5.80;99.90;;;;;;5035642;28;20630;-82
2023/04/08 07:29:06;;;;;;;9.60;6.60;;;5.90;99.90;;;;;;5034403;28;20219;-81
2023/04/08 07:31:32;;;;;;;8.73;6.10;;;6.00;99.90;;;;;;5035085;28;20178;-81
2023/04/08 07:33:57;;;;;;;8.83;6.77;;;6.00;99.90;;;;;;5034807;28;20178;-82
2023/04/08 07:36:23;;;;;;;9.07;6.63;;;6.10;99.90;;;;;;5035787;28;20643;-81
2023/04/08 07:38:49;;;;;;;8.23;6.47;;;6.30;99.90;;;;;;5034480;28;20210;-81
2023/04/08 07:41:15;;;;;;;6.70;5.50;;;6.30;99.90;;;;;;5026313;28;20219;-80
2023/04/08 07:43:40;;;;;;;8.37;5.90;;;6.20;99.90;;;;;;5025185;28;20262;-80
2023/04/08 07:46:06;;;;;;;6.93;5.63;;;6.30;99.90;;;;;;5034319;28;20175;-80
2023/04/08 07:48:33;;;;;;;7.00;5.87;;;6.30;99.90;;;;;;5033481;28;20301;-80
2023/04/08 07:51:06;;;;;;;8.53;5.90;;;6.40;99.90;;;;;;5034353;28;20176;-81
2023/04/08 07:53:33;;;;;;;8.43;5.97;;;6.40;99.90;;;;;;5033301;28;20262;-80
2023/04/08 07:55:59;;;;;;;8.27;5.90;;;6.40;99.90;;;;;;5033436;28;20176;-80
2023/04/08 07:58:25;;;;;;;7.87;5.97;;;6.40;99.90;;;;;;5035376;28;20188;-80
2023/04/08 08:00:51;;;;;;;7.70;6.13;;;6.50;99.90;;;;;;5033806;28;20525;-80
2023/04/08 08:03:16;;;;;;;8.27;6.10;;;6.40;99.90;;;;;;5035690;28;20268;-80
2023/04/08 08:05:42;;;;;;;8.33;5.80;;;6.50;99.90;;;;;;5034634;28;20175;-77
2023/04/08 08:08:10;;;;;;;7.07;5.80;;;6.50;99.90;;;;;;5035734;28;20185;-80
2023/04/08 08:10:39;;;;;;;7.67;6.07;;;6.60;99.90;;;;;;5034893;28;20184;-80
2023/04/08 08:13:06;;;;;;;8.27;5.90;;;6.60;99.90;;;;;;5035359;28;20211;-79
2023/04/08 08:15:32;;;;;;;9.20;6.27;;;6.60;99.90;;;;;;5034176;28;20183;-80
2023/04/08 08:17:58;;;;;;;7.60;5.80;;;6.60;99.90;;;;;;5034794;28;20276;-80
2023/04/08 08:20:24;;;;;;;6.90;6.20;;;6.60;99.90;;;;;;5033679;28;20211;-79
2023/04/08 08:22:49;;;;;;;7.60;5.83;;;6.60;99.90;;;;;;5034435;28;20202;-80
2023/04/08 08:25:16;;;;;;;7.20;5.87;;;6.70;99.90;;;;;;5036205;28;20556;-82
2023/04/08 08:27:42;;;;;;;7.40;5.40;;;7.10;99.90;;;;;;5034823;28;20172;-83
2023/04/08 08:30:08;;;;;;;7.53;5.97;;;7.20;99.90;;;;;;5033893;28;20220;-82
2023/04/08 08:32:34;;;;;;;6.23;5.30;;;7.80;99.90;;;;;;5034683;28;20181;-82
2023/04/08 08:35:00;;;;;;;7.03;5.00;;;8.10;99.90;;;;;;5034227;28;20183;-82
2023/04/08 08:37:25;;;;;;;6.73;5.20;;;8.00;99.90;;;;;;5033166;28;20270;-83
2023/04/08 08:39:51;;;;;;;6.13;4.83;;;8.00;99.90;;;;;;5035417;28;20688;-83
2023/04/08 08:42:23;;;;;;;9.60;5.57;;;7.70;99.90;;;;;;5036400;28;20187;-85
2023/04/08 08:44:49;;;;;;;6.30;5.20;;;7.60;99.90;;;;;;5034792;28;20173;-84
2023/04/08 08:47:15;;;;;;;6.87;5.10;;;7.40;99.90;;;;;;5035035;28;20272;-85
2023/04/08 08:49:41;;;;;;;6.13;5.33;;;7.10;99.90;;;;;;5036798;28;20237;-87
2023/04/08 08:52:07;;;;;;;6.67;5.23;;;7.10;99.90;;;;;;5037546;28;20269;-87
2023/04/08 08:54:32;;;;;;;7.63;5.60;;;7.50;99.90;;;;;;5036171;28;20222;-84
2023/04/08 08:56:58;;;;;;;7.10;5.13;;;7.40;99.90;;;;;;5038519;28;20521;-85
2023/04/08 08:59:24;;;;;;;8.47;5.57;;;7.40;99.90;;;;;;5036853;28;20300;-85
2023/04/08 09:01:50;;;;;;;8.90;6.37;;;7.50;99.90;;;;;;5038291;28;20177;-87
2023/04/08 09:04:21;;;;;;;8.17;6.10;;;7.90;99.90;;;;;;5038058;28;20176;-84
2023/04/08 09:06:49;;;;;;;7.80;5.47;;;7.70;99.90;;;;;;5036297;28;20173;-85
2023/04/08 09:09:15;;;;;;;7.87;6.27;;;7.60;99.90;;;;;;5037067;28;20284;-83
2023/04/08 09:11:46;;;;;;;8.73;6.27;;;7.60;99.90;;;;;;5036105;28;20209;-84
2023/04/08 09:14:18;;;;;;;6.83;5.17;;;7.70;99.90;;;;;;5036533;28;20178;-83
2023/04/08 09:16:44;;;;;;;7.20;5.63;;;8.50;99.90;;;;;;5036004;28;20177;-84
2023/04/08 09:19:10;;;;;;;7.13;5.30;;;8.90;99.90;;;;;;5034812;28;20228;-81
2023/04/08 09:21:36;;;;;;;6.17;5.03;;;9.70;99.90;;;;;;5034284;28;20238;-83
2023/04/08 09:24:02;;;;;;;6.53;5.00;;;9.40;99.90;;;;;;5035813;28;20170;-84
2023/04/08 09:26:28;;;;;;;7.30;5.30;;;9.60;99.90;;;;;;5034208;28;20176;-84
2023/04/08 09:29:07;;;;;;;6.67;4.90;;;9.40;99.90;;;;;;5032186;28;20306;-85
2023/04/08 09:31:41;;;;;;;6.10;4.80;;;9.70;99.90;;;;;;5033173;28;20586;-85
2023/04/08 09:34:16;;;;;;;5.93;4.60;;;10.40;99.90;;;;;;5035798;28;20180;-81
2023/04/08 09:36:43;;;;;;;7.07;5.00;;;10.70;99.90;;;;;;5038271;28;20193;-83
2023/04/08 09:39:09;;;;;;;7.07;4.80;;;10.70;99.90;;;;;;5034828;28;20241;-85
2023/04/08 09:41:36;;;;;;;5.93;5.10;;;10.20;99.90;;;;;;5034331;28;20171;-86
2023/04/08 09:44:07;;;;;;;6.93;5.13;;;9.90;99.90;;;;;;5035102;28;20169;-86
2023/04/08 09:46:42;;;;;;;6.27;5.43;;;9.60;99.90;;;;;;5029049;28;20640;-84
2023/04/08 09:49:37;;;;;;;6.57;5.30;;;9.30;99.90;;;;;;5013799;28;20201;-84
2023/04/08 09:52:21;;;;;;;6.30;5.03;;;9.60;99.90;;;;;;5023838;28;20182;-82
2023/04/08 09:54:51;;;;;;;6.90;5.20;;;9.90;99.90;;;;;;5014424;28;20216;-85
2023/04/08 09:57:24;;;;;;;6.43;5.60;;;9.90;99.90;;;;;;5022958;28;20189;-82
2023/04/08 10:00:04;;;;;;;6.87;5.47;;;9.80;99.90;;;;;;5026974;28;20693;-81
2023/04/08 10:02:39;;;;;;;355.47;95.90;;;9.50;99.90;;;;;;5013551;28;20264;-81
2023/04/08 10:05:06;;;;;;;14.20;8.20;;;9.70;99.90;;;;;;5013480;28;20173;-81
2023/04/08 10:07:33;;;;;;;7.90;5.40;;;9.80;99.90;;;;;;5014630;28;20178;-81
2023/04/08 10:09:59;;;;;;;8.07;5.27;;;9.70;99.90;;;;;;5013838;28;20707;-83
2023/04/08 10:12:25;;;;;;;8.33;5.33;;;9.80;99.90;;;;;;5021379;28;20182;-83
2023/04/08 10:15:25;;;;;;;6.30;5.20;;;10.20;99.90;;;;;;5026886;28;20254;-84
2023/04/08 10:18:18;;;;;;;6.60;4.90;;;10.70;99.90;;;;;;5034717;28;20182;-83
2023/04/08 10:20:45;;;;;;;5.97;4.67;;;11.00;99.90;;;;;;5032825;28;20206;-83
2023/04/08 10:23:13;;;;;;;5.23;4.70;;;11.10;99.90;;;;;;5034621;28;20198;-85
2023/04/08 10:25:40;;;;;;;5.50;4.77;;;11.10;99.90;;;;;;5032377;28;20185;-83
2023/04/08 10:31:01;;;;;;;7.47;4.93;;;11.30;99.90;;;;;;5036985;23;20235;-81
2023/04/08 10:33:35;;;;;;;6.67;5.00;;;11.60;99.90;;;;;;5012433;28;20182;-81
2023/04/08 10:36:08;;;;;;;7.17;4.97;;;11.90;99.90;;;;;;5013635;28;20171;-83
2023/04/08 10:38:34;;;;;;;5.10;4.50;;;12.00;99.90;;;;;;5011521;28;20190;-82
2023/04/08 10:40:59;;;;;;;5.40;4.90;;;11.70;99.90;;;;;;5011161;28;20190;-83
2023/04/08 10:43:25;;;;;;;6.33;5.00;;;11.00;99.90;;;;;;5011625;28;20266;-82
2023/04/08 10:45:52;;;;;;;5.97;5.00;;;11.00;99.90;;;;;;5012005;28;20171;-82
2023/04/08 10:48:23;;;;;;;5.33;4.67;;;11.00;99.90;;;;;;5011963;28;20179;-83
2023/04/08 10:51:02;;;;;;;5.40;4.50;;;10.80;99.90;;;;;;5012574;28;20202;-83
2023/04/08 10:53:33;;;;;;;5.07;4.50;;;10.80;99.90;;;;;;5011509;28;20177;-83
2023/04/08 10:56:09;;;;;;;5.60;4.67;;;10.80;99.90;;;;;;5011565;28;20556;-82
2023/04/08 10:58:35;;;;;;;6.27;4.73;;;10.70;99.90;;;;;;5012902;28;20186;-82
2023/04/08 11:01:07;;;;;;;5.57;4.40;;;10.50;99.90;;;;;;5012484;28;20181;-82
2023/04/08 11:03:34;;;;;;;7.00;4.70;;;10.40;99.90;;;;;;5011610;28;20198;-82
2023/04/08 11:06:01;;;;;;;5.30;4.57;;;10.10;99.90;;;;;;5011892;28;20174;-82
2023/04/08 11:08:33;;;;;;;6.47;4.83;;;10.00;99.90;;;;;;5011239;28;20270;-82
2023/04/08 11:11:04;;;;;;;5.23;4.50;;;9.80;99.90;;;;;;5011065;28;20202;-82
2023/04/08 11:13:30;;;;;;;5.70;4.77;;;9.70;99.90;;;;;;5015304;28;20178;-83
2023/04/08 11:15:58;;;;;;;5.00;4.50;;;9.80;99.90;;;;;;5022836;28;20173;-82
2023/04/08 11:18:24;;;;;;;6.37;4.90;;;9.90;99.90;;;;;;5030952;28;20247;-82
2023/04/08 11:20:50;;;;;;;6.00;4.67;;;9.80;99.90;;;;;;5030522;28;20220;-82
2023/04/08 11:23:16;;;;;;;5.20;4.60;;;9.80;99.90;;;;;;5031028;28;20658;-83
2023/04/08 11:25:43;;;;;;;5.33;4.73;;;9.70;99.90;;;;;;5032336;28;20170;-82
2023/04/08 11:28:10;;;;;;;6.43;4.73;;;9.60;99.90;;;;;;5032077;28;20715;-82
2023/04/08 11:30:38;;;;;;;4.90;4.40;;;9.60;99.90;;;;;;5031649;28;20209;-82
2023/04/08 11:33:03;;;;;;;5.63;4.70;;;9.50;99.90;;;;;;5032448;28;20178;-82
2023/04/08 11:35:30;;;;;;;5.90;4.40;;;9.40;99.90;;;;;;5032118;28;20180;-81
2023/04/08 11:37:57;;;;;;;5.60;3.97;;;9.40;99.90;;;;;;5035825;28;20663;-81
2023/04/08 11:40:23;;;;;;;5.27;4.20;;;9.40;99.90;;;;;;5033320;28;20203;-81
2023/04/08 11:42:50;;;;;;;6.20;4.40;;;9.40;99.90;;;;;;5034042;28;20184;-81
2023/04/08 11:45:17;;;;;;;5.73;4.57;;;9.40;99.90;;;;;;5031778;28;20184;-82
2023/04/08 11:47:44;;;;;;;5.10;4.50;;;9.40;99.90;;;;;;5023387;28;20180;-80
2023/04/08 11:50:10;;;;;;;5.07;4.33;;;9.50;99.90;;;;;;5031789;28;20202;-80
2023/04/08 11:52:47;;;;;;;5.40;4.63;;;9.50;99.90;;;;;;5030958;28;20204;-80
2023/04/08 11:55:29;;;;;;;5.73;4.47;;;9.70;99.90;;;;;;5034511;28;20174;-79
2023/04/08 11:57:56;;;;;;;5.43;4.10;;;9.90;99.90;;;;;;5038862;28;20180;-79
2023/04/08 12:00:23;;;;;;;4.83;4.03;;;9.90;99.90;;;;;;5036850;28;20602;-80
2023/04/08 12:02:50;;;;;;;5.70;4.50;;;10.00;99.90;;;;;;5038957;28;20177;-80
2023/04/08 12:05:16;;;;;;;4.60;3.93;;;10.00;99.90;;;;;;5038660;28;20169;-80
2023/04/08 12:07:42;;;;;;;4.70;3.97;;;10.40;99.90;;;;;;5038000;28;20174;-80
2023/04/08 12:10:09;;;;;;;5.40;4.13;;;11.00;99.90;;;;;;5028685;28;20195;-79
2023/04/08 12:12:35;;;;;;;6.27;4.53;;;11.40;99.90;;;;;;5006856;28;20246;-82
2023/04/08 12:15:01;;;;;;;5.20;4.03;;;11.60;99.90;;;;;;5026392;28;20247;-81
2023/04/08 12:17:26;;;;;;;4.67;4.17;;;12.10;99.90;;;;;;5036251;28;20182;-82
2023/04/08 12:19:52;;;;;;;4.33;3.90;;;12.50;99.90;;;;;;5036770;28;20224;-81
2023/04/08 12:22:17;;;;;;;4.40;3.87;;;12.80;99.90;;;;;;5030304;28;20183;-80
2023/04/08 12:24:43;;;;;;;5.50;4.30;;;13.10;99.90;;;;;;5019546;28;20196;-81
2023/04/08 12:27:08;;;;;;;4.80;3.97;;;12.90;99.90;;;;;;5021499;28;20190;-80
2023/04/08 12:29:34;;;;;;;5.00;4.00;;;12.50;99.90;;;;;;5021138;28;20329;-80
2023/04/08 12:32:01;;;;;;;4.30;3.90;;;12.70;99.90;;;;;;5019783;28;20177;-80
2023/04/08 12:34:26;;;;;;;4.83;4.00;;;13.10;99.90;;;;;;5019016;28;20252;-80
2023/04/08 12:36:52;;;;;;;4.73;3.77;;;13.40;99.90;;;;;;5018805;28;20186;-80
2023/04/08 12:39:18;;;;;;;5.93;4.10;;;13.60;99.90;;;;;;5019182;28;20207;-79
2023/04/08 12:41:43;;;;;;;4.07;3.60;;;13.80;99.20;;;;;;5017685;28;20593;-81
2023/04/08 12:44:09;;;;;;;4.67;3.70;;;13.50;99.90;;;;;;5016677;28;20216;-82
2023/04/08 12:46:35;;;;;;;4.10;3.50;;;13.70;99.90;;;;;;5016177;28;20263;-80
2023/04/08 12:49:00;;;;;;;4.63;3.90;;;14.10;99.90;;;;;;5018133;28;20230;-80
2023/04/08 12:51:26;;;;;;;4.80;3.83;;;14.10;94.10;;;;;;5019209;28;20182;-82
2023/04/08 12:53:51;;;;;;;5.40;3.60;;;14.30;99.60;;;;;;5018188;28;20183;-83
2023/04/08 12:56:17;;;;;;;8.00;3.77;;;14.20;98.90;;;;;;5016811;28;20186;-83
2023/04/08 12:58:43;;;;;;;4.30;3.80;;;14.10;95.50;;;;;;5019554;28;20175;-81